createdAt,value
2023-03-06T00:02:10.125Z,1.69
2023-03-06T00:05:26.887Z,1.76
2023-03-06T00:08:42.029Z,1.73
2023-03-06T00:11:59.694Z,1.80
2023-03-06T00:15:18.741Z,1.90
2023-03-06T00:18:36.887Z,1.94
2023-03-06T00:21:56.250Z,2.00
2023-03-06T00:25:15.148Z,2.02
2023-03-06T00:28:17.926Z,1.98
2023-03-06T00:31:19.976Z,2.04
2023-03-06T00:34:22.073Z,2.05
2023-03-06T00:37:25.322Z,2.06
2023-03-06T00:40:27.749Z,2.10
2023-03-06T00:43:29.910Z,2.10
2023-03-06T00:46:32.198Z,2.10
2023-03-06T00:49:34.891Z,2.08
2023-03-06T00:52:37.677Z,2.11
2023-03-06T00:55:39.820Z,2.15
2023-03-06T00:58:41.890Z,2.15
2023-03-06T01:01:43.996Z,2.14
2023-03-06T01:04:46.276Z,2.05
2023-03-06T01:07:48.462Z,1.99
2023-03-06T01:10:50.531Z,1.98
2023-03-06T01:13:52.631Z,2.01
2023-03-06T01:16:54.897Z,2.10
2023-03-06T01:19:58.073Z,2.02
2023-03-06T01:23:00.133Z,1.96
2023-03-06T01:26:02.294Z,2.02
2023-03-06T01:29:04.364Z,1.96
2023-03-06T01:32:06.680Z,1.96
2023-03-06T01:35:09.485Z,1.90
2023-03-06T01:38:11.552Z,1.94
2023-03-06T01:41:15.937Z,1.91
2023-03-06T01:44:18.126Z,2.00
2023-03-06T01:47:20.097Z,2.04
2023-03-06T01:50:22.264Z,2.07
2023-03-06T01:53:24.574Z,2.10
2023-03-06T01:56:26.899Z,2.18
2023-03-06T01:59:30.252Z,2.23
2023-03-06T02:02:33.027Z,2.27
2023-03-06T02:05:35.975Z,2.28
2023-03-06T02:08:38.803Z,2.26
2023-03-06T02:11:44.169Z,2.23
2023-03-06T02:14:47.649Z,2.24
2023-03-06T02:17:51.576Z,2.23
2023-03-06T02:20:56.149Z,2.15
2023-03-06T02:23:58.082Z,2.22
2023-03-06T02:27:02.938Z,2.23
2023-03-06T02:30:10.238Z,2.25
2023-03-06T02:33:15.361Z,2.23
2023-03-06T02:36:17.525Z,2.26
2023-03-06T02:39:23.992Z,2.24
2023-03-06T02:42:29.053Z,2.26
2023-03-06T02:45:39.567Z,2.26
2023-03-06T02:48:41.808Z,2.26
2023-03-06T02:51:44.708Z,2.23
2023-03-06T02:54:46.805Z,2.19
2023-03-06T02:57:49.057Z,2.24
2023-03-06T03:00:51.363Z,2.23
2023-03-06T03:03:53.424Z,2.13
2023-03-06T03:06:55.488Z,2.14
2023-03-06T03:09:57.676Z,2.14
2023-03-06T03:12:59.931Z,2.14
2023-03-06T03:16:07.773Z,2.08
2023-03-06T03:19:10.069Z,2.12
2023-03-06T03:22:12.255Z,2.13
2023-03-06T03:25:14.642Z,2.13
2023-03-06T03:28:16.800Z,2.05
2023-03-06T03:31:19.011Z,2.04
2023-03-06T03:34:21.120Z,2.01
2023-03-06T03:37:23.362Z,2.02
2023-03-06T03:40:25.527Z,2.01
2023-03-06T03:43:27.629Z,1.98
2023-03-06T03:46:29.693Z,2.00
2023-03-06T03:49:32.140Z,2.04
2023-03-06T03:52:34.284Z,2.06
2023-03-06T03:55:36.794Z,2.00
2023-03-06T03:58:39.659Z,1.99
2023-03-06T04:01:41.771Z,1.97
2023-03-06T04:04:43.869Z,2.02
2023-03-06T04:07:45.965Z,2.03
2023-03-06T04:10:48.093Z,2.01
2023-03-06T04:13:50.188Z,2.06
2023-03-06T04:16:52.229Z,2.08
2023-03-06T04:19:54.380Z,2.12
2023-03-06T04:22:56.434Z,2.16
2023-03-06T04:25:58.578Z,2.15
2023-03-06T04:29:00.942Z,2.12
2023-03-06T04:32:03.369Z,2.12
2023-03-06T04:35:05.976Z,2.18
2023-03-06T04:38:08.020Z,2.20
2023-03-06T04:41:10.039Z,2.21
2023-03-06T04:44:11.996Z,2.18
2023-03-06T04:47:14.012Z,2.19
2023-03-06T04:50:17.620Z,2.18
2023-03-06T04:53:21.454Z,2.18
2023-03-06T04:56:23.447Z,2.20
2023-03-06T04:59:25.838Z,2.21
2023-03-06T05:02:28.210Z,2.08
2023-03-06T05:05:30.345Z,2.12
2023-03-06T05:08:32.499Z,2.05
2023-03-06T05:11:34.816Z,1.98
2023-03-06T05:14:36.902Z,1.96
2023-03-06T05:17:39.536Z,1.93
2023-03-06T05:20:41.619Z,1.89
2023-03-06T05:23:43.707Z,1.97
2023-03-06T05:26:45.710Z,1.92
2023-03-06T05:29:47.743Z,1.91
2023-03-06T05:32:50.663Z,1.96
2023-03-06T05:35:52.976Z,2.00
2023-03-06T05:38:55.414Z,1.97
2023-03-06T05:41:57.508Z,1.94
2023-03-06T05:44:59.538Z,1.90
2023-03-06T05:48:01.785Z,1.90
2023-03-06T05:51:05.058Z,1.85
2023-03-06T05:54:07.080Z,1.88
2023-03-06T05:57:09.320Z,1.92
2023-03-06T06:00:13.143Z,1.97
2023-03-06T06:03:15.352Z,2.00
2023-03-06T06:06:18.071Z,1.94
2023-03-06T06:09:22.155Z,2.00
2023-03-06T06:12:24.456Z,2.01
2023-03-06T06:15:28.934Z,1.81
2023-03-06T06:18:30.959Z,1.73
2023-03-06T06:21:33.027Z,1.68
2023-03-06T06:24:35.398Z,1.76
2023-03-06T06:27:37.366Z,1.77
2023-03-06T06:30:39.499Z,1.80
2023-03-06T06:33:41.881Z,1.87
2023-03-06T06:36:44.198Z,1.91
2023-03-06T06:39:46.698Z,2.00
2023-03-06T06:42:48.832Z,2.06
2023-03-06T06:45:51.158Z,2.16
2023-03-06T06:48:56.367Z,2.22
2023-03-06T06:51:58.888Z,2.18
2023-03-06T06:55:00.834Z,2.24
2023-03-06T06:58:02.828Z,2.21
2023-03-06T07:01:06.971Z,2.26
2023-03-06T07:04:12.519Z,2.37
2023-03-06T07:07:14.623Z,2.43
2023-03-06T07:10:18.898Z,2.48
2023-03-06T07:13:22.118Z,2.48
2023-03-06T07:16:24.162Z,2.61
2023-03-06T07:19:26.417Z,2.78
2023-03-06T07:22:32.001Z,2.94
2023-03-06T07:25:38.044Z,3.08
2023-03-06T07:28:51.886Z,3.16
2023-03-06T07:31:55.152Z,3.06
2023-03-06T07:35:17.151Z,3.18
2023-03-06T07:38:19.971Z,3.40
2023-03-06T07:41:22.802Z,3.41
2023-03-06T07:44:24.909Z,3.42
2023-03-06T07:47:26.934Z,3.64
2023-03-06T07:50:29.062Z,3.60
2023-03-06T07:53:31.689Z,3.49
2023-03-06T07:56:35.193Z,3.25
2023-03-06T07:59:37.242Z,3.45
2023-03-06T08:02:40.634Z,3.56
2023-03-06T08:05:43.430Z,3.75
2023-03-06T08:08:46.995Z,3.92
2023-03-06T08:11:49.581Z,3.88
2023-03-06T08:14:51.605Z,3.57
2023-03-06T08:17:53.891Z,3.58
2023-03-06T08:21:17.288Z,3.71
2023-03-06T08:24:19.586Z,3.91
2023-03-06T08:27:21.609Z,4.37
2023-03-06T08:30:23.912Z,4.49
2023-03-06T08:33:26.785Z,4.80
2023-03-06T08:36:28.988Z,4.19
2023-03-06T08:39:31.259Z,4.03
2023-03-06T08:42:33.395Z,3.96
2023-03-06T08:45:35.697Z,4.14
2023-03-06T08:48:38.516Z,4.13
2023-03-06T08:51:41.031Z,4.20
2023-03-06T08:54:43.242Z,4.41
2023-03-06T08:57:45.792Z,4.57
2023-03-06T09:00:47.973Z,4.65
2023-03-06T09:03:51.358Z,4.75
2023-03-06T09:06:55.456Z,4.94
2023-03-06T09:09:58.481Z,5.26
2023-03-06T09:13:00.709Z,5.41
2023-03-06T09:16:02.816Z,5.48
2023-03-06T09:19:05.127Z,5.67
2023-03-06T09:22:07.306Z,5.94
2023-03-06T09:25:11.214Z,6.13
2023-03-06T09:28:13.321Z,6.00
2023-03-06T09:31:18.593Z,6.34
2023-03-06T09:34:21.025Z,6.50
2023-03-06T09:37:23.197Z,6.69
2023-03-06T09:40:39.163Z,6.53
2023-03-06T09:43:45.761Z,6.38
2023-03-06T09:47:25.379Z,6.09
2023-03-06T09:50:41.990Z,6.08
2023-03-06T09:54:14.326Z,6.36
2023-03-06T09:57:26.829Z,6.66
2023-03-06T10:00:37.654Z,6.79
2023-03-06T10:03:54.599Z,6.88
2023-03-06T10:07:01.642Z,6.87
2023-03-06T10:10:10.660Z,6.66
2023-03-06T10:13:41.077Z,6.77
2023-03-06T10:16:43.112Z,7.13
2023-03-06T10:19:47.798Z,7.55
2023-03-06T10:23:03.172Z,7.68
2023-03-06T10:26:22.784Z,7.69
2023-03-06T10:30:03.396Z,7.85
2023-03-06T10:33:50.963Z,7.92
2023-03-06T10:36:53.005Z,7.61
2023-03-06T10:40:28.435Z,7.83
2023-03-06T10:43:30.887Z,7.91
2023-03-06T10:46:45.149Z,7.96
2023-03-06T10:49:59.015Z,7.99
2023-03-06T10:53:07.213Z,8.30
2023-03-06T10:56:09.902Z,8.76
2023-03-06T10:59:11.875Z,8.56
2023-03-06T11:02:26.147Z,8.54
2023-03-06T11:05:28.207Z,8.44
2023-03-06T11:08:31.558Z,8.69
2023-03-06T11:11:37.749Z,8.45
2023-03-06T11:14:40.127Z,9.00
2023-03-06T11:17:56.202Z,9.07
2023-03-06T11:20:58.573Z,9.41
2023-03-06T11:24:19.899Z,9.83
2023-03-06T11:27:36.346Z,9.55
2023-03-06T11:30:46.395Z,9.69
2023-03-06T11:33:57.467Z,9.93
2023-03-06T11:37:07.232Z,10.43
2023-03-06T11:40:09.533Z,10.65
2023-03-06T11:43:30.372Z,10.19
2023-03-06T11:46:39.909Z,9.85
2023-03-06T11:49:46.985Z,9.78
2023-03-06T11:53:01.598Z,10.10
2023-03-06T11:56:18.614Z,10.43
2023-03-06T11:59:20.656Z,10.00
2023-03-06T12:02:33.610Z,9.64
2023-03-06T12:06:03.905Z,9.93
2023-03-06T12:09:14.685Z,10.37
2023-03-06T12:12:25.754Z,10.55
2023-03-06T12:15:46.099Z,10.58
2023-03-06T12:19:16.364Z,10.40
2023-03-06T12:22:36.336Z,10.55
2023-03-06T12:25:42.022Z,10.61
2023-03-06T12:29:09.847Z,10.87
2023-03-06T12:32:25.314Z,10.43
2023-03-06T12:35:42.466Z,10.41
2023-03-06T12:38:56.497Z,9.97
2023-03-06T12:42:11.511Z,9.76
2023-03-06T12:45:34.017Z,9.63
2023-03-06T12:48:37.538Z,9.62
2023-03-06T12:51:40.427Z,9.24
2023-03-06T12:54:42.689Z,9.34
2023-03-06T12:57:45.847Z,9.36
2023-03-06T13:01:35.934Z,9.62
2023-03-06T13:05:00.434Z,9.51
2023-03-06T13:08:17.482Z,9.52
2023-03-06T13:11:47.094Z,9.49
2023-03-06T13:14:54.637Z,9.30
2023-03-06T13:17:57.723Z,9.37
2023-03-06T13:21:00.065Z,9.44
2023-03-06T13:24:06.123Z,9.45
2023-03-06T13:27:11.362Z,9.36
2023-03-06T13:30:43.623Z,9.34
2023-03-06T13:33:45.627Z,9.14
2023-03-06T13:36:47.768Z,9.16
2023-03-06T13:40:10.197Z,9.27
2023-03-06T13:43:21.540Z,9.36
2023-03-06T13:46:26.100Z,9.50
2023-03-06T13:49:29.513Z,9.32
2023-03-06T13:52:44.628Z,9.46
2023-03-06T13:56:05.078Z,9.35
2023-03-06T13:59:56.993Z,9.45
2023-03-06T14:03:40.813Z,9.69
2023-03-06T14:07:03.226Z,9.51
2023-03-06T14:10:20.157Z,9.65
2023-03-06T14:13:45.246Z,9.68
2023-03-06T14:16:51.080Z,9.74
2023-03-06T14:19:53.901Z,9.62
2023-03-06T14:23:21.120Z,9.69
2023-03-06T14:26:26.367Z,9.67
2023-03-06T14:29:30.393Z,9.68
2023-03-06T14:32:33.008Z,9.75
2023-03-06T14:35:34.986Z,9.47
2023-03-06T14:38:43.939Z,9.36
2023-03-06T14:41:46.251Z,9.28
2023-03-06T14:44:50.154Z,9.33
2023-03-06T14:47:53.236Z,9.28
2023-03-06T14:50:58.460Z,9.31
2023-03-06T14:54:02.683Z,9.32
2023-03-06T14:57:14.562Z,9.30
2023-03-06T15:00:21.284Z,9.17
2023-03-06T15:03:33.967Z,9.24
2023-03-06T15:06:41.490Z,9.26
2023-03-06T15:09:47.877Z,9.25
2023-03-06T15:12:49.939Z,9.18
2023-03-06T15:16:04.552Z,9.13
2023-03-06T15:19:18.849Z,9.07
2023-03-06T15:22:25.566Z,9.12
2023-03-06T15:25:32.683Z,9.12
2023-03-06T15:28:38.696Z,9.08
2023-03-06T15:31:45.653Z,9.03
2023-03-06T15:34:47.956Z,9.09
2023-03-06T15:37:50.525Z,9.07
2023-03-06T15:41:01.433Z,9.01
2023-03-06T15:44:11.267Z,8.99
2023-03-06T15:47:13.436Z,8.95
2023-03-06T15:50:26.174Z,8.94
2023-03-06T15:53:28.832Z,8.89
2023-03-06T15:56:35.357Z,8.85
2023-03-06T15:59:43.203Z,8.80
2023-03-06T16:02:45.777Z,8.75
2023-03-06T16:05:48.119Z,8.72
2023-03-06T16:08:53.641Z,8.61
2023-03-06T16:11:55.817Z,8.57
2023-03-06T16:15:01.929Z,8.52
2023-03-06T16:18:05.337Z,8.49
2023-03-06T16:21:08.134Z,8.47
2023-03-06T16:24:11.977Z,8.47
2023-03-06T16:27:23.607Z,8.45
2023-03-06T16:30:29.569Z,8.48
2023-03-06T16:33:32.066Z,8.41
2023-03-06T16:36:35.974Z,8.39
2023-03-06T16:39:38.802Z,8.36
2023-03-06T16:42:41.125Z,8.40
2023-03-06T16:45:43.714Z,8.35
2023-03-06T16:48:46.923Z,8.28
2023-03-06T16:51:50.929Z,8.29
2023-03-06T16:54:53.196Z,8.27
2023-03-06T16:57:55.981Z,8.23
2023-03-06T17:00:58.288Z,8.14
2023-03-06T17:04:01.003Z,8.10
2023-03-06T17:07:03.948Z,8.10
2023-03-06T17:10:09.243Z,8.09
2023-03-06T17:13:12.324Z,8.10
2023-03-06T17:16:18.846Z,8.08
2023-03-06T17:19:21.260Z,8.08
2023-03-06T17:22:25.010Z,8.06
2023-03-06T17:25:27.367Z,7.98
2023-03-06T17:28:29.883Z,7.97
2023-03-06T17:31:32.424Z,7.91
2023-03-06T17:34:35.133Z,7.78
2023-03-06T17:37:37.892Z,7.67
2023-03-06T17:40:40.653Z,7.53
2023-03-06T17:43:43.462Z,7.30
2023-03-06T17:46:46.517Z,7.16
2023-03-06T17:49:49.399Z,7.08
2023-03-06T17:52:52.281Z,6.90
2023-03-06T17:55:56.347Z,6.79
2023-03-06T17:59:00.504Z,6.73
2023-03-06T18:02:03.780Z,6.53
2023-03-06T18:05:07.013Z,6.43
2023-03-06T18:08:10.944Z,6.39
2023-03-06T18:11:14.602Z,6.29
2023-03-06T18:14:17.233Z,6.23
2023-03-06T18:17:19.887Z,6.16
2023-03-06T18:20:23.139Z,6.11
2023-03-06T18:23:27.282Z,6.07
2023-03-06T18:26:30.602Z,6.03
2023-03-06T18:29:34.078Z,5.95
2023-03-06T18:32:36.817Z,5.92
2023-03-06T18:35:39.926Z,5.82
2023-03-06T18:38:44.541Z,5.77
2023-03-06T18:41:48.348Z,5.74
2023-03-06T18:44:51.364Z,5.69
2023-03-06T18:47:55.476Z,5.65
2023-03-06T18:51:07.721Z,5.59
2023-03-06T18:54:11.805Z,5.57
2023-03-06T18:57:14.751Z,5.52
2023-03-06T19:00:18.455Z,5.52
2023-03-06T19:03:21.800Z,5.54
2023-03-06T19:06:25.435Z,5.56
2023-03-06T19:09:29.397Z,5.59
2023-03-06T19:12:34.432Z,5.57
2023-03-06T19:15:49.431Z,5.59
2023-03-06T19:18:53.336Z,5.60
2023-03-06T19:22:00.495Z,5.60
2023-03-06T19:25:03.978Z,5.65
2023-03-06T19:28:07.343Z,5.71
2023-03-06T19:31:16.213Z,5.72
2023-03-06T19:34:19.909Z,5.69
2023-03-06T19:37:22.811Z,5.72
2023-03-06T19:40:26.193Z,5.72
2023-03-06T19:43:30.310Z,5.68
2023-03-06T19:46:35.181Z,5.69
2023-03-06T19:49:39.001Z,5.66
2023-03-06T19:52:43.350Z,5.65
2023-03-06T19:55:48.696Z,5.60
2023-03-06T19:58:54.777Z,5.57
2023-03-06T20:01:58.088Z,5.48
2023-03-06T20:05:01.315Z,5.46
2023-03-06T20:08:05.834Z,5.44
2023-03-06T20:11:16.451Z,5.40
2023-03-06T20:14:22.008Z,5.41
2023-03-06T20:17:27.195Z,5.39
2023-03-06T20:20:30.291Z,5.34
2023-03-06T20:23:34.921Z,5.31
2023-03-06T20:26:39.619Z,5.28
2023-03-06T20:29:46.328Z,5.29
2023-03-06T20:32:52.240Z,5.27
2023-03-06T20:35:55.960Z,5.29
2023-03-06T20:39:00.868Z,5.30
2023-03-06T20:42:04.866Z,5.33
2023-03-06T20:45:08.480Z,5.30
2023-03-06T20:48:11.012Z,5.27
2023-03-06T20:51:20.763Z,5.30
2023-03-06T20:54:23.875Z,5.26
2023-03-06T20:57:26.791Z,5.23
2023-03-06T21:00:29.697Z,5.20
2023-03-06T21:03:32.866Z,5.17
2023-03-06T21:06:35.504Z,5.16
2023-03-06T21:09:39.826Z,5.21
2023-03-06T21:12:42.535Z,5.22
2023-03-06T21:15:47.617Z,5.24
2023-03-06T21:18:50.302Z,5.19
2023-03-06T21:21:52.290Z,5.19
2023-03-06T21:24:54.364Z,5.19
2023-03-06T21:27:56.956Z,5.21
2023-03-06T21:31:03.010Z,5.22
2023-03-06T21:34:06.425Z,5.22
2023-03-06T21:37:08.647Z,5.21
2023-03-06T21:40:11.613Z,5.18
2023-03-06T21:43:15.829Z,5.13
2023-03-06T21:46:17.938Z,5.09
2023-03-06T21:49:23.018Z,5.08
2023-03-06T21:52:26.503Z,5.07
2023-03-06T21:55:28.867Z,5.02
2023-03-06T21:58:31.102Z,4.99
2023-03-06T22:01:33.160Z,4.95
2023-03-06T22:04:35.212Z,4.91
2023-03-06T22:07:38.432Z,4.92
2023-03-06T22:10:41.537Z,4.90
2023-03-06T22:13:44.637Z,4.86
2023-03-06T22:16:46.626Z,4.84
2023-03-06T22:19:49.137Z,4.79
2023-03-06T22:22:51.484Z,4.77
2023-03-06T22:25:53.554Z,4.73
2023-03-06T22:28:56.159Z,4.72
2023-03-06T22:31:58.388Z,4.71
2023-03-06T22:35:00.516Z,4.72
2023-03-06T22:38:04.635Z,4.64
2023-03-06T22:41:07.836Z,4.65
2023-03-06T22:44:16.610Z,4.60
2023-03-06T22:47:18.737Z,4.58
2023-03-06T22:50:20.805Z,4.55
2023-03-06T22:53:22.925Z,4.54
2023-03-06T22:56:25.158Z,4.57
2023-03-06T22:59:27.173Z,4.58
2023-03-06T23:02:34.684Z,4.47
2023-03-06T23:05:41.907Z,4.48
2023-03-06T23:08:48.269Z,4.49
2023-03-06T23:11:50.559Z,4.47
2023-03-06T23:14:52.792Z,4.51
2023-03-06T23:17:55.270Z,4.50
2023-03-06T23:20:57.843Z,4.51
2023-03-06T23:23:59.919Z,4.54
2023-03-06T23:27:02.003Z,4.52
2023-03-06T23:30:09.154Z,4.51
2023-03-06T23:33:11.402Z,4.50
2023-03-06T23:36:15.788Z,4.47
2023-03-06T23:39:17.854Z,4.52
2023-03-06T23:42:20.144Z,4.52
2023-03-06T23:45:22.312Z,4.53
2023-03-06T23:48:24.773Z,4.55
2023-03-06T23:51:27.102Z,4.52
2023-03-06T23:54:29.240Z,4.53
2023-03-06T23:57:31.472Z,4.52
